Terminal Aerodrome Forecast
Issued by NWS

Home | Current Version | Previous Version | Text Only | Print | Product List | Glossary On
Versions: 1 2 3 4 5 6 7 8 9 10 11 12 13 14 15 16 17 18 19
000
FTUS44 KLZK 190500
TAFPBF
TAF
KPBF 190526Z 1906/2006 VRB03KT 4SM BR VCSH OVC005
      TEMPO 1909/1913 1SM BR OVC005
     FM191400 26005KT P6SM BKN015
     FM191500 20007KT P6SM VCTS SCT030CB BKN250
     FM200300 31006KT 5SM TSRA BKN025CB OVC070=

USA.gov is the U.S. government's official web portal to all federal, state and local government web resources and services.